sensor_id;sensor_type;location;lat;lon;timestamp;P1;durP1;ratioP1;P2;durP2;ratioP2
20122;SDS011;10222;50.848;4.336;2023-04-24T00:01:03;9.77;;;5.80;;
20122;SDS011;10222;50.848;4.336;2023-04-24T00:03:33;8.80;;;5.77;;
20122;SDS011;10222;50.848;4.336;2023-04-24T00:05:59;10.40;;;4.60;;
20122;SDS011;10222;50.848;4.336;2023-04-24T00:08:26;11.37;;;5.20;;
20122;SDS011;10222;50.848;4.336;2023-04-24T00:10:52;7.27;;;4.77;;
20122;SDS011;10222;50.848;4.336;2023-04-24T00:13:20;9.70;;;5.20;;
20122;SDS011;10222;50.848;4.336;2023-04-24T00:15:46;6.67;;;5.17;;
20122;SDS011;10222;50.848;4.336;2023-04-24T00:18:12;7.90;;;5.03;;
20122;SDS011;10222;50.848;4.336;2023-04-24T00:20:38;11.00;;;5.53;;
20122;SDS011;10222;50.848;4.336;2023-04-24T00:23:04;12.03;;;5.87;;
20122;SDS011;10222;50.848;4.336;2023-04-24T00:25:30;13.73;;;5.37;;
20122;SDS011;10222;50.848;4.336;2023-04-24T00:27:56;14.63;;;6.50;;
20122;SDS011;10222;50.848;4.336;2023-04-24T00:30:26;11.13;;;6.00;;
20122;SDS011;10222;50.848;4.336;2023-04-24T00:32:52;11.80;;;4.87;;
20122;SDS011;10222;50.848;4.336;2023-04-24T00:35:18;11.67;;;5.27;;
20122;SDS011;10222;50.848;4.336;2023-04-24T00:37:45;17.77;;;5.87;;
20122;SDS011;10222;50.848;4.336;2023-04-24T00:40:11;10.27;;;5.10;;
20122;SDS011;10222;50.848;4.336;2023-04-24T00:42:37;8.90;;;5.60;;
20122;SDS011;10222;50.848;4.336;2023-04-24T00:45:03;12.23;;;5.87;;
20122;SDS011;10222;50.848;4.336;2023-04-24T00:47:30;13.13;;;6.70;;
20122;SDS011;10222;50.848;4.336;2023-04-24T00:49:57;10.37;;;5.93;;
20122;SDS011;10222;50.848;4.336;2023-04-24T00:52:24;10.47;;;6.20;;
20122;SDS011;10222;50.848;4.336;2023-04-24T00:54:50;12.80;;;5.50;;
20122;SDS011;10222;50.848;4.336;2023-04-24T00:57:16;12.30;;;5.27;;
20122;SDS011;10222;50.848;4.336;2023-04-24T00:59:43;8.47;;;5.37;;
20122;SDS011;10222;50.848;4.336;2023-04-24T01:02:11;9.67;;;5.53;;
20122;SDS011;10222;50.848;4.336;2023-04-24T01:04:38;10.80;;;5.93;;
20122;SDS011;10222;50.848;4.336;2023-04-24T01:07:05;12.23;;;5.47;;
20122;SDS011;10222;50.848;4.336;2023-04-24T01:09:37;12.60;;;5.77;;
20122;SDS011;10222;50.848;4.336;2023-04-24T01:12:03;12.43;;;5.10;;
20122;SDS011;10222;50.848;4.336;2023-04-24T01:16:59;8.03;;;5.03;;
20122;SDS011;10222;50.848;4.336;2023-04-24T01:19:26;9.37;;;5.57;;
20122;SDS011;10222;50.848;4.336;2023-04-24T01:21:55;8.93;;;5.13;;
20122;SDS011;10222;50.848;4.336;2023-04-24T01:24:22;11.73;;;6.07;;
20122;SDS011;10222;50.848;4.336;2023-04-24T01:26:50;10.23;;;5.50;;
20122;SDS011;10222;50.848;4.336;2023-04-24T01:29:17;10.13;;;5.63;;
20122;SDS011;10222;50.848;4.336;2023-04-24T01:31:43;9.27;;;4.90;;
20122;SDS011;10222;50.848;4.336;2023-04-24T01:34:10;7.40;;;5.00;;
20122;SDS011;10222;50.848;4.336;2023-04-24T01:36:36;6.53;;;4.47;;
20122;SDS011;10222;50.848;4.336;2023-04-24T01:39:03;6.87;;;4.90;;
20122;SDS011;10222;50.848;4.336;2023-04-24T01:41:30;9.03;;;4.97;;
20122;SDS011;10222;50.848;4.336;2023-04-24T01:43:57;14.73;;;5.53;;
20122;SDS011;10222;50.848;4.336;2023-04-24T01:46:23;7.43;;;4.57;;
20122;SDS011;10222;50.848;4.336;2023-04-24T01:48:49;6.50;;;4.63;;
20122;SDS011;10222;50.848;4.336;2023-04-24T01:51:16;9.90;;;5.10;;
20122;SDS011;10222;50.848;4.336;2023-04-24T01:53:42;7.27;;;4.77;;
20122;SDS011;10222;50.848;4.336;2023-04-24T01:56:09;8.43;;;5.37;;
20122;SDS011;10222;50.848;4.336;2023-04-24T01:58:36;10.40;;;5.10;;
20122;SDS011;10222;50.848;4.336;2023-04-24T02:01:02;9.30;;;4.67;;
20122;SDS011;10222;50.848;4.336;2023-04-24T02:03:29;10.80;;;5.07;;
20122;SDS011;10222;50.848;4.336;2023-04-24T02:05:55;8.87;;;4.50;;
20122;SDS011;10222;50.848;4.336;2023-04-24T02:08:22;8.30;;;5.03;;
20122;SDS011;10222;50.848;4.336;2023-04-24T02:10:50;7.87;;;4.63;;
20122;SDS011;10222;50.848;4.336;2023-04-24T02:13:16;10.63;;;4.97;;
20122;SDS011;10222;50.848;4.336;2023-04-24T02:15:42;8.30;;;4.73;;
20122;SDS011;10222;50.848;4.336;2023-04-24T02:18:08;6.97;;;5.03;;
20122;SDS011;10222;50.848;4.336;2023-04-24T02:20:35;10.20;;;5.13;;
20122;SDS011;10222;50.848;4.336;2023-04-24T02:23:01;8.47;;;4.10;;
20122;SDS011;10222;50.848;4.336;2023-04-24T02:25:28;10.43;;;5.70;;
20122;SDS011;10222;50.848;4.336;2023-04-24T02:27:54;8.33;;;4.90;;
20122;SDS011;10222;50.848;4.336;2023-04-24T02:30:20;8.83;;;5.03;;
20122;SDS011;10222;50.848;4.336;2023-04-24T02:32:47;8.93;;;5.47;;
20122;SDS011;10222;50.848;4.336;2023-04-24T02:35:14;8.93;;;4.67;;
20122;SDS011;10222;50.848;4.336;2023-04-24T02:37:40;9.47;;;5.43;;
20122;SDS011;10222;50.848;4.336;2023-04-24T02:40:06;9.93;;;5.73;;
20122;SDS011;10222;50.848;4.336;2023-04-24T02:42:33;8.07;;;4.60;;
20122;SDS011;10222;50.848;4.336;2023-04-24T02:45:01;11.43;;;4.77;;
20122;SDS011;10222;50.848;4.336;2023-04-24T02:47:28;8.00;;;4.67;;
20122;SDS011;10222;50.848;4.336;2023-04-24T02:49:55;8.20;;;5.00;;
20122;SDS011;10222;50.848;4.336;2023-04-24T02:52:24;12.30;;;5.83;;
20122;SDS011;10222;50.848;4.336;2023-04-24T02:54:50;11.20;;;4.60;;
20122;SDS011;10222;50.848;4.336;2023-04-24T02:57:18;8.43;;;4.83;;
20122;SDS011;10222;50.848;4.336;2023-04-24T02:59:45;7.10;;;3.90;;
20122;SDS011;10222;50.848;4.336;2023-04-24T03:02:12;8.80;;;5.40;;
20122;SDS011;10222;50.848;4.336;2023-04-24T03:04:38;8.23;;;4.53;;
20122;SDS011;10222;50.848;4.336;2023-04-24T03:07:05;8.73;;;4.40;;
20122;SDS011;10222;50.848;4.336;2023-04-24T03:09:31;8.63;;;4.80;;
20122;SDS011;10222;50.848;4.336;2023-04-24T03:11:58;7.40;;;4.30;;
20122;SDS011;10222;50.848;4.336;2023-04-24T03:14:25;7.13;;;4.30;;
20122;SDS011;10222;50.848;4.336;2023-04-24T03:16:51;9.27;;;4.37;;
20122;SDS011;10222;50.848;4.336;2023-04-24T03:21:49;9.23;;;4.50;;
20122;SDS011;10222;50.848;4.336;2023-04-24T03:26:45;9.33;;;4.47;;
20122;SDS011;10222;50.848;4.336;2023-04-24T03:29:11;5.27;;;3.90;;
20122;SDS011;10222;50.848;4.336;2023-04-24T03:31:38;7.20;;;3.93;;
20122;SDS011;10222;50.848;4.336;2023-04-24T03:34:07;10.07;;;4.33;;
20122;SDS011;10222;50.848;4.336;2023-04-24T03:36:33;8.30;;;3.97;;
20122;SDS011;10222;50.848;4.336;2023-04-24T03:41:28;4.90;;;4.07;;
20122;SDS011;10222;50.848;4.336;2023-04-24T03:43:55;7.73;;;3.60;;
20122;SDS011;10222;50.848;4.336;2023-04-24T03:46:22;6.17;;;3.77;;
20122;SDS011;10222;50.848;4.336;2023-04-24T03:48:51;8.23;;;3.50;;
20122;SDS011;10222;50.848;4.336;2023-04-24T03:51:18;5.87;;;3.33;;
20122;SDS011;10222;50.848;4.336;2023-04-24T03:53:45;5.17;;;3.50;;
20122;SDS011;10222;50.848;4.336;2023-04-24T03:56:11;5.30;;;2.73;;
20122;SDS011;10222;50.848;4.336;2023-04-24T03:58:37;5.03;;;3.10;;
20122;SDS011;10222;50.848;4.336;2023-04-24T04:01:04;4.20;;;2.53;;
20122;SDS011;10222;50.848;4.336;2023-04-24T04:03:30;5.57;;;3.03;;
20122;SDS011;10222;50.848;4.336;2023-04-24T04:05:56;4.07;;;2.77;;
20122;SDS011;10222;50.848;4.336;2023-04-24T04:08:22;4.80;;;2.67;;
20122;SDS011;10222;50.848;4.336;2023-04-24T04:10:48;7.80;;;3.80;;
20122;SDS011;10222;50.848;4.336;2023-04-24T04:13:14;3.90;;;2.60;;
20122;SDS011;10222;50.848;4.336;2023-04-24T04:15:40;6.60;;;3.00;;
20122;SDS011;10222;50.848;4.336;2023-04-24T04:18:07;4.67;;;2.97;;
20122;SDS011;10222;50.848;4.336;2023-04-24T04:20:34;4.50;;;2.57;;
20122;SDS011;10222;50.848;4.336;2023-04-24T04:23:01;3.87;;;2.70;;
20122;SDS011;10222;50.848;4.336;2023-04-24T04:25:28;3.87;;;2.47;;
20122;SDS011;10222;50.848;4.336;2023-04-24T04:27:56;5.60;;;2.73;;
20122;SDS011;10222;50.848;4.336;2023-04-24T04:30:25;4.07;;;2.80;;
20122;SDS011;10222;50.848;4.336;2023-04-24T04:32:51;4.00;;;2.57;;
20122;SDS011;10222;50.848;4.336;2023-04-24T04:35:17;4.87;;;2.60;;
20122;SDS011;10222;50.848;4.336;2023-04-24T04:37:44;3.97;;;2.20;;
20122;SDS011;10222;50.848;4.336;2023-04-24T04:40:10;4.07;;;2.73;;
20122;SDS011;10222;50.848;4.336;2023-04-24T04:42:37;5.70;;;2.90;;
20122;SDS011;10222;50.848;4.336;2023-04-24T04:45:06;6.40;;;3.13;;
20122;SDS011;10222;50.848;4.336;2023-04-24T04:47:33;3.53;;;2.57;;
20122;SDS011;10222;50.848;4.336;2023-04-24T04:50:00;3.63;;;2.50;;
20122;SDS011;10222;50.848;4.336;2023-04-24T04:52:26;6.20;;;3.57;;
20122;SDS011;10222;50.848;4.336;2023-04-24T04:54:52;10.97;;;3.57;;
20122;SDS011;10222;50.848;4.336;2023-04-24T04:57:19;5.00;;;3.33;;
20122;SDS011;10222;50.848;4.336;2023-04-24T04:59:45;10.03;;;3.70;;
20122;SDS011;10222;50.848;4.336;2023-04-24T05:02:11;10.83;;;5.23;;
20122;SDS011;10222;50.848;4.336;2023-04-24T05:04:37;9.20;;;4.67;;
20122;SDS011;10222;50.848;4.336;2023-04-24T05:07:05;9.13;;;4.33;;
20122;SDS011;10222;50.848;4.336;2023-04-24T05:09:32;11.30;;;4.67;;
20122;SDS011;10222;50.848;4.336;2023-04-24T05:11:58;16.40;;;4.90;;
20122;SDS011;10222;50.848;4.336;2023-04-24T05:14:24;8.17;;;4.60;;
20122;SDS011;10222;50.848;4.336;2023-04-24T05:16:51;11.23;;;5.07;;
20122;SDS011;10222;50.848;4.336;2023-04-24T05:19:18;8.17;;;4.63;;
20122;SDS011;10222;50.848;4.336;2023-04-24T05:21:45;13.83;;;4.87;;
20122;SDS011;10222;50.848;4.336;2023-04-24T05:24:13;7.47;;;4.47;;
20122;SDS011;10222;50.848;4.336;2023-04-24T05:26:41;10.67;;;5.33;;
20122;SDS011;10222;50.848;4.336;2023-04-24T05:29:07;10.30;;;4.97;;
20122;SDS011;10222;50.848;4.336;2023-04-24T05:34:04;8.80;;;4.83;;
20122;SDS011;10222;50.848;4.336;2023-04-24T05:36:36;8.47;;;5.03;;
20122;SDS011;10222;50.848;4.336;2023-04-24T05:39:03;9.13;;;5.50;;
20122;SDS011;10222;50.848;4.336;2023-04-24T05:41:31;10.93;;;5.70;;
20122;SDS011;10222;50.848;4.336;2023-04-24T05:44:00;12.10;;;5.77;;
20122;SDS011;10222;50.848;4.336;2023-04-24T05:46:29;9.00;;;5.07;;
20122;SDS011;10222;50.848;4.336;2023-04-24T05:48:57;9.60;;;4.73;;
20122;SDS011;10222;50.848;4.336;2023-04-24T05:51:24;8.23;;;4.67;;
20122;SDS011;10222;50.848;4.336;2023-04-24T05:53:54;9.60;;;5.07;;
20122;SDS011;10222;50.848;4.336;2023-04-24T05:56:21;9.10;;;4.33;;
20122;SDS011;10222;50.848;4.336;2023-04-24T05:58:50;8.87;;;4.37;;
20122;SDS011;10222;50.848;4.336;2023-04-24T06:01:19;8.07;;;4.70;;
20122;SDS011;10222;50.848;4.336;2023-04-24T06:03:48;10.53;;;4.83;;
20122;SDS011;10222;50.848;4.336;2023-04-24T06:06:16;9.73;;;5.03;;
20122;SDS011;10222;50.848;4.336;2023-04-24T06:08:45;9.73;;;4.53;;
20122;SDS011;10222;50.848;4.336;2023-04-24T06:11:12;11.10;;;4.97;;
20122;SDS011;10222;50.848;4.336;2023-04-24T06:13:39;5.63;;;3.73;;
20122;SDS011;10222;50.848;4.336;2023-04-24T06:16:05;11.47;;;5.33;;
20122;SDS011;10222;50.848;4.336;2023-04-24T06:18:32;9.13;;;5.27;;
20122;SDS011;10222;50.848;4.336;2023-04-24T06:21:02;11.00;;;5.07;;
20122;SDS011;10222;50.848;4.336;2023-04-24T06:23:29;15.97;;;6.07;;
20122;SDS011;10222;50.848;4.336;2023-04-24T06:25:57;7.57;;;4.67;;
20122;SDS011;10222;50.848;4.336;2023-04-24T06:28:26;9.17;;;5.53;;
20122;SDS011;10222;50.848;4.336;2023-04-24T06:33:21;11.27;;;5.50;;
20122;SDS011;10222;50.848;4.336;2023-04-24T06:35:48;10.33;;;5.43;;
20122;SDS011;10222;50.848;4.336;2023-04-24T06:38:14;13.87;;;6.90;;
20122;SDS011;10222;50.848;4.336;2023-04-24T06:40:42;11.27;;;5.90;;
20122;SDS011;10222;50.848;4.336;2023-04-24T06:43:08;13.03;;;5.93;;
20122;SDS011;10222;50.848;4.336;2023-04-24T06:45:34;9.77;;;5.73;;
20122;SDS011;10222;50.848;4.336;2023-04-24T06:48:00;11.70;;;6.20;;
20122;SDS011;10222;50.848;4.336;2023-04-24T06:50:27;13.80;;;6.37;;
20122;SDS011;10222;50.848;4.336;2023-04-24T06:52:54;14.53;;;6.10;;
20122;SDS011;10222;50.848;4.336;2023-04-24T06:55:22;15.03;;;7.00;;
20122;SDS011;10222;50.848;4.336;2023-04-24T06:57:49;12.40;;;6.17;;
20122;SDS011;10222;50.848;4.336;2023-04-24T07:00:15;14.17;;;6.57;;
20122;SDS011;10222;50.848;4.336;2023-04-24T07:02:41;15.27;;;7.70;;
20122;SDS011;10222;50.848;4.336;2023-04-24T07:05:07;15.40;;;7.10;;
20122;SDS011;10222;50.848;4.336;2023-04-24T07:07:36;13.40;;;6.63;;
20122;SDS011;10222;50.848;4.336;2023-04-24T07:10:04;16.30;;;6.80;;
20122;SDS011;10222;50.848;4.336;2023-04-24T07:15:00;13.87;;;7.07;;
20122;SDS011;10222;50.848;4.336;2023-04-24T07:17:26;14.60;;;7.30;;
20122;SDS011;10222;50.848;4.336;2023-04-24T07:19:54;15.67;;;6.07;;
20122;SDS011;10222;50.848;4.336;2023-04-24T07:22:20;15.50;;;7.10;;
20122;SDS011;10222;50.848;4.336;2023-04-24T07:24:49;14.00;;;6.27;;
20122;SDS011;10222;50.848;4.336;2023-04-24T07:27:15;12.70;;;5.53;;
20122;SDS011;10222;50.848;4.336;2023-04-24T07:29:41;11.77;;;6.43;;
20122;SDS011;10222;50.848;4.336;2023-04-24T07:32:08;17.33;;;6.13;;
20122;SDS011;10222;50.848;4.336;2023-04-24T07:34:34;12.03;;;4.97;;
20122;SDS011;10222;50.848;4.336;2023-04-24T07:37:02;13.47;;;5.13;;
20122;SDS011;10222;50.848;4.336;2023-04-24T07:39:30;14.03;;;4.80;;
20122;SDS011;10222;50.848;4.336;2023-04-24T07:41:56;14.03;;;5.67;;
20122;SDS011;10222;50.848;4.336;2023-04-24T07:44:24;11.47;;;5.50;;
20122;SDS011;10222;50.848;4.336;2023-04-24T07:49:21;13.50;;;6.40;;
20122;SDS011;10222;50.848;4.336;2023-04-24T07:51:49;11.60;;;6.60;;
20122;SDS011;10222;50.848;4.336;2023-04-24T07:54:15;13.60;;;5.93;;
20122;SDS011;10222;50.848;4.336;2023-04-24T07:56:43;11.47;;;5.40;;
20122;SDS011;10222;50.848;4.336;2023-04-24T07:59:10;10.37;;;5.53;;
20122;SDS011;10222;50.848;4.336;2023-04-24T08:01:36;11.13;;;5.83;;
20122;SDS011;10222;50.848;4.336;2023-04-24T08:04:04;13.83;;;5.40;;
20122;SDS011;10222;50.848;4.336;2023-04-24T08:06:31;11.53;;;5.40;;
20122;SDS011;10222;50.848;4.336;2023-04-24T08:08:58;11.63;;;5.27;;
20122;SDS011;10222;50.848;4.336;2023-04-24T08:11:26;10.33;;;4.43;;
20122;SDS011;10222;50.848;4.336;2023-04-24T08:13:53;7.83;;;3.90;;
20122;SDS011;10222;50.848;4.336;2023-04-24T08:16:22;7.53;;;4.00;;
20122;SDS011;10222;50.848;4.336;2023-04-24T08:18:49;10.70;;;4.60;;
20122;SDS011;10222;50.848;4.336;2023-04-24T08:21:16;13.47;;;6.00;;
20122;SDS011;10222;50.848;4.336;2023-04-24T08:23:44;5.90;;;3.93;;
20122;SDS011;10222;50.848;4.336;2023-04-24T08:26:11;10.80;;;4.63;;
20122;SDS011;10222;50.848;4.336;2023-04-24T08:31:06;11.73;;;4.40;;
20122;SDS011;10222;50.848;4.336;2023-04-24T08:33:32;8.00;;;3.27;;
20122;SDS011;10222;50.848;4.336;2023-04-24T08:36:04;10.20;;;3.93;;
20122;SDS011;10222;50.848;4.336;2023-04-24T08:38:31;9.37;;;3.63;;
20122;SDS011;10222;50.848;4.336;2023-04-24T08:40:58;6.73;;;3.77;;
20122;SDS011;10222;50.848;4.336;2023-04-24T08:43:24;6.73;;;4.30;;
20122;SDS011;10222;50.848;4.336;2023-04-24T08:45:51;12.03;;;4.17;;
20122;SDS011;10222;50.848;4.336;2023-04-24T08:48:18;8.23;;;4.10;;
20122;SDS011;10222;50.848;4.336;2023-04-24T08:50:45;10.57;;;3.27;;
20122;SDS011;10222;50.848;4.336;2023-04-24T08:53:11;11.47;;;4.13;;
20122;SDS011;10222;50.848;4.336;2023-04-24T08:55:39;7.13;;;3.30;;
20122;SDS011;10222;50.848;4.336;2023-04-24T08:58:06;7.97;;;3.40;;
20122;SDS011;10222;50.848;4.336;2023-04-24T09:00:34;6.20;;;3.60;;
20122;SDS011;10222;50.848;4.336;2023-04-24T09:03:00;7.50;;;2.80;;
20122;SDS011;10222;50.848;4.336;2023-04-24T09:05:27;7.33;;;2.83;;
20122;SDS011;10222;50.848;4.336;2023-04-24T09:07:54;5.77;;;3.03;;
20122;SDS011;10222;50.848;4.336;2023-04-24T09:10:23;4.53;;;2.20;;
20122;SDS011;10222;50.848;4.336;2023-04-24T09:12:50;5.77;;;2.60;;
20122;SDS011;10222;50.848;4.336;2023-04-24T09:15:17;9.97;;;4.03;;
20122;SDS011;10222;50.848;4.336;2023-04-24T09:17:43;14.13;;;4.40;;
20122;SDS011;10222;50.848;4.336;2023-04-24T09:20:10;8.83;;;2.63;;
20122;SDS011;10222;50.848;4.336;2023-04-24T09:22:36;4.67;;;2.30;;
20122;SDS011;10222;50.848;4.336;2023-04-24T09:25:03;4.87;;;2.17;;
20122;SDS011;10222;50.848;4.336;2023-04-24T09:27:30;6.30;;;2.60;;
20122;SDS011;10222;50.848;4.336;2023-04-24T09:29:57;4.60;;;2.03;;
20122;SDS011;10222;50.848;4.336;2023-04-24T09:32:23;3.13;;;2.37;;
20122;SDS011;10222;50.848;4.336;2023-04-24T09:35:04;5.37;;;2.50;;
20122;SDS011;10222;50.848;4.336;2023-04-24T09:37:34;3.03;;;2.00;;
20122;SDS011;10222;50.848;4.336;2023-04-24T09:40:11;3.90;;;2.10;;
20122;SDS011;10222;50.848;4.336;2023-04-24T09:42:38;4.37;;;2.00;;
20122;SDS011;10222;50.848;4.336;2023-04-24T09:45:08;5.87;;;1.93;;
20122;SDS011;10222;50.848;4.336;2023-04-24T09:47:36;6.27;;;2.77;;
20122;SDS011;10222;50.848;4.336;2023-04-24T09:50:10;6.00;;;2.13;;
20122;SDS011;10222;50.848;4.336;2023-04-24T09:52:56;7.07;;;2.10;;
20122;SDS011;10222;50.848;4.336;2023-04-24T09:55:22;5.00;;;2.10;;
20122;SDS011;10222;50.848;4.336;2023-04-24T10:00:18;6.50;;;2.40;;
20122;SDS011;10222;50.848;4.336;2023-04-24T10:02:49;7.40;;;2.33;;
20122;SDS011;10222;50.848;4.336;2023-04-24T10:05:16;5.50;;;2.07;;
20122;SDS011;10222;50.848;4.336;2023-04-24T10:07:44;4.80;;;2.67;;
20122;SDS011;10222;50.848;4.336;2023-04-24T10:10:11;4.03;;;2.07;;
20122;SDS011;10222;50.848;4.336;2023-04-24T10:12:37;6.53;;;2.40;;
20122;SDS011;10222;50.848;4.336;2023-04-24T10:15:03;12.03;;;4.00;;
20122;SDS011;10222;50.848;4.336;2023-04-24T10:17:30;7.17;;;2.57;;
20122;SDS011;10222;50.848;4.336;2023-04-24T10:19:57;8.27;;;2.13;;
20122;SDS011;10222;50.848;4.336;2023-04-24T10:22:23;4.10;;;2.30;;
20122;SDS011;10222;50.848;4.336;2023-04-24T10:24:50;5.63;;;2.63;;
20122;SDS011;10222;50.848;4.336;2023-04-24T10:27:16;3.40;;;2.40;;
20122;SDS011;10222;50.848;4.336;2023-04-24T10:29:43;5.63;;;2.67;;
20122;SDS011;10222;50.848;4.336;2023-04-24T10:32:09;3.17;;;2.20;;
20122;SDS011;10222;50.848;4.336;2023-04-24T10:34:36;7.70;;;2.50;;
20122;SDS011;10222;50.848;4.336;2023-04-24T10:37:02;3.83;;;2.43;;
20122;SDS011;10222;50.848;4.336;2023-04-24T10:39:28;5.87;;;2.33;;
20122;SDS011;10222;50.848;4.336;2023-04-24T10:41:55;3.93;;;2.20;;
20122;SDS011;10222;50.848;4.336;2023-04-24T10:44:22;4.73;;;2.20;;
20122;SDS011;10222;50.848;4.336;2023-04-24T10:46:52;5.03;;;2.43;;
20122;SDS011;10222;50.848;4.336;2023-04-24T10:49:27;6.97;;;2.97;;
20122;SDS011;10222;50.848;4.336;2023-04-24T10:51:53;8.83;;;2.70;;
20122;SDS011;10222;50.848;4.336;2023-04-24T10:54:23;6.43;;;2.77;;
20122;SDS011;10222;50.848;4.336;2023-04-24T10:56:50;4.37;;;2.37;;
20122;SDS011;10222;50.848;4.336;2023-04-24T10:59:34;7.17;;;3.07;;
20122;SDS011;10222;50.848;4.336;2023-04-24T11:02:02;8.13;;;2.87;;
20122;SDS011;10222;50.848;4.336;2023-04-24T11:04:29;6.23;;;3.10;;
20122;SDS011;10222;50.848;4.336;2023-04-24T11:06:55;9.33;;;2.60;;
20122;SDS011;10222;50.848;4.336;2023-04-24T11:09:21;10.33;;;2.60;;
20122;SDS011;10222;50.848;4.336;2023-04-24T11:11:47;6.23;;;2.43;;
20122;SDS011;10222;50.848;4.336;2023-04-24T11:14:14;4.67;;;2.13;;
20122;SDS011;10222;50.848;4.336;2023-04-24T11:16:44;6.00;;;2.40;;
20122;SDS011;10222;50.848;4.336;2023-04-24T11:21:58;9.73;;;2.83;;
20122;SDS011;10222;50.848;4.336;2023-04-24T11:32:16;7.30;;;2.80;;
20122;SDS011;10222;50.848;4.336;2023-04-24T11:34:50;5.53;;;2.40;;
20122;SDS011;10222;50.848;4.336;2023-04-24T11:37:18;7.63;;;2.30;;
20122;SDS011;10222;50.848;4.336;2023-04-24T11:39:44;4.50;;;2.70;;
20122;SDS011;10222;50.848;4.336;2023-04-24T11:42:13;4.37;;;2.77;;
20122;SDS011;10222;50.848;4.336;2023-04-24T11:44:40;4.83;;;2.37;;
20122;SDS011;10222;50.848;4.336;2023-04-24T11:47:08;5.33;;;2.50;;
20122;SDS011;10222;50.848;4.336;2023-04-24T11:49:37;4.00;;;2.67;;
20122;SDS011;10222;50.848;4.336;2023-04-24T11:52:03;4.73;;;2.83;;
20122;SDS011;10222;50.848;4.336;2023-04-24T11:54:30;5.20;;;2.73;;
20122;SDS011;10222;50.848;4.336;2023-04-24T11:56:56;5.30;;;2.57;;
20122;SDS011;10222;50.848;4.336;2023-04-24T11:59:22;4.97;;;3.13;;
20122;SDS011;10222;50.848;4.336;2023-04-24T12:01:49;5.93;;;2.60;;
20122;SDS011;10222;50.848;4.336;2023-04-24T12:04:16;7.93;;;3.77;;
20122;SDS011;10222;50.848;4.336;2023-04-24T12:07:01;4.23;;;2.97;;
20122;SDS011;10222;50.848;4.336;2023-04-24T12:09:27;5.23;;;3.50;;
20122;SDS011;10222;50.848;4.336;2023-04-24T12:11:55;7.33;;;3.43;;
20122;SDS011;10222;50.848;4.336;2023-04-24T12:14:26;6.00;;;3.30;;
20122;SDS011;10222;50.848;4.336;2023-04-24T12:16:52;7.27;;;3.90;;
20122;SDS011;10222;50.848;4.336;2023-04-24T12:19:21;10.40;;;5.07;;
20122;SDS011;10222;50.848;4.336;2023-04-24T12:22:02;4.53;;;2.90;;
20122;SDS011;10222;50.848;4.336;2023-04-24T12:24:29;4.83;;;2.77;;
20122;SDS011;10222;50.848;4.336;2023-04-24T12:26:57;5.33;;;2.27;;
20122;SDS011;10222;50.848;4.336;2023-04-24T12:29:23;4.23;;;3.00;;
20122;SDS011;10222;50.848;4.336;2023-04-24T12:31:50;4.80;;;2.57;;
20122;SDS011;10222;50.848;4.336;2023-04-24T12:34:17;6.80;;;2.80;;
20122;SDS011;10222;50.848;4.336;2023-04-24T12:36:43;4.37;;;2.50;;
20122;SDS011;10222;50.848;4.336;2023-04-24T12:39:20;4.70;;;2.50;;
20122;SDS011;10222;50.848;4.336;2023-04-24T12:44:33;4.77;;;2.20;;
20122;SDS011;10222;50.848;4.336;2023-04-24T12:47:01;9.30;;;2.60;;
20122;SDS011;10222;50.848;4.336;2023-04-24T12:49:28;8.33;;;2.90;;
20122;SDS011;10222;50.848;4.336;2023-04-24T12:51:54;4.47;;;2.37;;
20122;SDS011;10222;50.848;4.336;2023-04-24T12:54:20;2.93;;;2.30;;
20122;SDS011;10222;50.848;4.336;2023-04-24T12:56:46;3.60;;;2.23;;
20122;SDS011;10222;50.848;4.336;2023-04-24T12:59:13;4.07;;;2.27;;
20122;SDS011;10222;50.848;4.336;2023-04-24T13:01:42;6.00;;;2.70;;
20122;SDS011;10222;50.848;4.336;2023-04-24T13:04:08;5.33;;;2.57;;
20122;SDS011;10222;50.848;4.336;2023-04-24T13:06:35;4.27;;;2.60;;
20122;SDS011;10222;50.848;4.336;2023-04-24T13:09:01;5.00;;;2.40;;
20122;SDS011;10222;50.848;4.336;2023-04-24T13:11:27;5.23;;;2.63;;
20122;SDS011;10222;50.848;4.336;2023-04-24T13:13:54;6.83;;;3.20;;
20122;SDS011;10222;50.848;4.336;2023-04-24T13:16:20;3.23;;;2.00;;
20122;SDS011;10222;50.848;4.336;2023-04-24T13:18:50;6.20;;;2.40;;
20122;SDS011;10222;50.848;4.336;2023-04-24T13:21:16;2.73;;;1.70;;
20122;SDS011;10222;50.848;4.336;2023-04-24T13:23:43;2.97;;;1.80;;
20122;SDS011;10222;50.848;4.336;2023-04-24T13:26:09;6.27;;;2.10;;
20122;SDS011;10222;50.848;4.336;2023-04-24T13:28:35;3.83;;;1.60;;
20122;SDS011;10222;50.848;4.336;2023-04-24T13:31:03;3.87;;;2.03;;
20122;SDS011;10222;50.848;4.336;2023-04-24T13:33:29;3.90;;;2.07;;
20122;SDS011;10222;50.848;4.336;2023-04-24T13:35:55;2.43;;;1.60;;
20122;SDS011;10222;50.848;4.336;2023-04-24T13:38:22;2.73;;;1.57;;
20122;SDS011;10222;50.848;4.336;2023-04-24T13:40:48;4.40;;;2.00;;
20122;SDS011;10222;50.848;4.336;2023-04-24T13:43:14;7.77;;;2.17;;
20122;SDS011;10222;50.848;4.336;2023-04-24T13:45:41;5.00;;;1.70;;
20122;SDS011;10222;50.848;4.336;2023-04-24T13:48:08;4.33;;;1.50;;
20122;SDS011;10222;50.848;4.336;2023-04-24T13:50:34;2.00;;;1.57;;
20122;SDS011;10222;50.848;4.336;2023-04-24T13:53:00;3.60;;;1.70;;
20122;SDS011;10222;50.848;4.336;2023-04-24T13:55:26;2.83;;;1.30;;
20122;SDS011;10222;50.848;4.336;2023-04-24T13:57:52;3.17;;;1.53;;
20122;SDS011;10222;50.848;4.336;2023-04-24T14:00:20;4.03;;;1.50;;
20122;SDS011;10222;50.848;4.336;2023-04-24T14:02:46;2.07;;;1.30;;
20122;SDS011;10222;50.848;4.336;2023-04-24T14:05:13;2.43;;;1.10;;
20122;SDS011;10222;50.848;4.336;2023-04-24T14:07:41;10.63;;;2.03;;
20122;SDS011;10222;50.848;4.336;2023-04-24T14:10:07;4.97;;;1.70;;
20122;SDS011;10222;50.848;4.336;2023-04-24T14:12:33;3.37;;;1.27;;
20122;SDS011;10222;50.848;4.336;2023-04-24T14:15:00;1.10;;;0.93;;
20122;SDS011;10222;50.848;4.336;2023-04-24T14:17:32;2.80;;;0.90;;
20122;SDS011;10222;50.848;4.336;2023-04-24T14:19:58;2.57;;;1.67;;
20122;SDS011;10222;50.848;4.336;2023-04-24T14:22:25;2.87;;;1.10;;
20122;SDS011;10222;50.848;4.336;2023-04-24T14:24:52;2.17;;;1.30;;
20122;SDS011;10222;50.848;4.336;2023-04-24T14:27:18;4.17;;;1.80;;
20122;SDS011;10222;50.848;4.336;2023-04-24T14:29:45;1.83;;;1.20;;
20122;SDS011;10222;50.848;4.336;2023-04-24T14:32:12;4.33;;;1.63;;
20122;SDS011;10222;50.848;4.336;2023-04-24T14:34:40;7.67;;;2.13;;
20122;SDS011;10222;50.848;4.336;2023-04-24T14:37:07;4.77;;;2.37;;
20122;SDS011;10222;50.848;4.336;2023-04-24T14:39:33;5.03;;;2.33;;
20122;SDS011;10222;50.848;4.336;2023-04-24T14:44:29;2.50;;;1.10;;
20122;SDS011;10222;50.848;4.336;2023-04-24T14:46:56;2.67;;;0.80;;
20122;SDS011;10222;50.848;4.336;2023-04-24T14:49:23;3.13;;;1.20;;
20122;SDS011;10222;50.848;4.336;2023-04-24T14:51:49;1.90;;;1.20;;
20122;SDS011;10222;50.848;4.336;2023-04-24T14:54:15;5.53;;;1.40;;
20122;SDS011;10222;50.848;4.336;2023-04-24T14:56:41;3.13;;;1.30;;
20122;SDS011;10222;50.848;4.336;2023-04-24T14:59:09;3.37;;;0.83;;
20122;SDS011;10222;50.848;4.336;2023-04-24T15:01:35;1.93;;;1.47;;
20122;SDS011;10222;50.848;4.336;2023-04-24T15:04:01;1.77;;;1.03;;
20122;SDS011;10222;50.848;4.336;2023-04-24T15:06:29;2.93;;;1.30;;
20122;SDS011;10222;50.848;4.336;2023-04-24T15:08:57;2.50;;;1.00;;
20122;SDS011;10222;50.848;4.336;2023-04-24T15:11:25;2.23;;;1.30;;
20122;SDS011;10222;50.848;4.336;2023-04-24T15:13:53;1.63;;;1.10;;
20122;SDS011;10222;50.848;4.336;2023-04-24T15:16:19;1.83;;;0.97;;
20122;SDS011;10222;50.848;4.336;2023-04-24T15:18:46;2.60;;;1.00;;
20122;SDS011;10222;50.848;4.336;2023-04-24T15:21:12;2.07;;;0.67;;
20122;SDS011;10222;50.848;4.336;2023-04-24T15:23:38;1.10;;;0.83;;